sensor_id;sensor_type;location;lat;lon;timestamp;temperature;humidity
25352;DHT22;13304;48.464;8.712;2023-04-03T00:00:09;7.40;85.30
25352;DHT22;13304;48.464;8.712;2023-04-03T00:02:35;7.40;85.40
25352;DHT22;13304;48.464;8.712;2023-04-03T00:05:01;7.40;85.50
25352;DHT22;13304;48.464;8.712;2023-04-03T00:07:27;7.30;84.70
25352;DHT22;13304;48.464;8.712;2023-04-03T00:09:53;7.30;84.70
25352;DHT22;13304;48.464;8.712;2023-04-03T00:12:18;7.30;85.50
25352;DHT22;13304;48.464;8.712;2023-04-03T00:14:44;7.30;84.80
25352;DHT22;13304;48.464;8.712;2023-04-03T00:17:10;7.30;85.00
25352;DHT22;13304;48.464;8.712;2023-04-03T00:19:36;7.20;84.40
25352;DHT22;13304;48.464;8.712;2023-04-03T00:22:01;7.10;83.50
25352;DHT22;13304;48.464;8.712;2023-04-03T00:24:27;7.10;84.30
25352;DHT22;13304;48.464;8.712;2023-04-03T00:26:53;7.10;84.60
25352;DHT22;13304;48.464;8.712;2023-04-03T00:29:19;7.20;85.00
25352;DHT22;13304;48.464;8.712;2023-04-03T00:31:44;7.10;84.70
25352;DHT22;13304;48.464;8.712;2023-04-03T00:34:10;7.10;84.60
25352;DHT22;13304;48.464;8.712;2023-04-03T00:36:36;7.10;84.70
25352;DHT22;13304;48.464;8.712;2023-04-03T00:39:02;7.10;85.10
25352;DHT22;13304;48.464;8.712;2023-04-03T00:41:28;7.10;85.30
25352;DHT22;13304;48.464;8.712;2023-04-03T00:43:54;7.10;85.00
25352;DHT22;13304;48.464;8.712;2023-04-03T00:46:20;7.20;84.70
25352;DHT22;13304;48.464;8.712;2023-04-03T00:48:47;7.20;85.10
25352;DHT22;13304;48.464;8.712;2023-04-03T00:51:23;7.20;85.20
25352;DHT22;13304;48.464;8.712;2023-04-03T00:53:56;7.10;84.00
25352;DHT22;13304;48.464;8.712;2023-04-03T00:56:25;7.10;84.30
25352;DHT22;13304;48.464;8.712;2023-04-03T00:59:18;7.10;84.70
25352;DHT22;13304;48.464;8.712;2023-04-03T01:01:48;7.10;83.90
25352;DHT22;13304;48.464;8.712;2023-04-03T01:07:04;7.10;84.50
25352;DHT22;13304;48.464;8.712;2023-04-03T01:09:32;7.10;85.10
25352;DHT22;13304;48.464;8.712;2023-04-03T01:12:22;7.20;84.30
25352;DHT22;13304;48.464;8.712;2023-04-03T01:14:54;7.10;83.60
25352;DHT22;13304;48.464;8.712;2023-04-03T01:25:53;7.10;83.90
25352;DHT22;13304;48.464;8.712;2023-04-03T01:28:26;7.10;83.20
25352;DHT22;13304;48.464;8.712;2023-04-03T01:33:43;7.00;83.20
25352;DHT22;13304;48.464;8.712;2023-04-03T01:36:17;7.10;83.60
25352;DHT22;13304;48.464;8.712;2023-04-03T01:38:43;7.00;83.10
25352;DHT22;13304;48.464;8.712;2023-04-03T01:41:09;6.90;82.10
25352;DHT22;13304;48.464;8.712;2023-04-03T01:43:35;7.00;83.50
25352;DHT22;13304;48.464;8.712;2023-04-03T01:46:00;6.90;82.70
25352;DHT22;13304;48.464;8.712;2023-04-03T01:48:29;6.90;82.90
25352;DHT22;13304;48.464;8.712;2023-04-03T01:50:54;6.90;82.60
25352;DHT22;13304;48.464;8.712;2023-04-03T01:53:20;6.90;82.60
25352;DHT22;13304;48.464;8.712;2023-04-03T01:55:46;6.80;82.20
25352;DHT22;13304;48.464;8.712;2023-04-03T01:58:12;6.80;82.20
25352;DHT22;13304;48.464;8.712;2023-04-03T02:00:38;6.80;82.40
25352;DHT22;13304;48.464;8.712;2023-04-03T02:03:03;6.70;82.10
25352;DHT22;13304;48.464;8.712;2023-04-03T02:05:29;6.80;83.10
25352;DHT22;13304;48.464;8.712;2023-04-03T02:07:55;6.80;83.30
25352;DHT22;13304;48.464;8.712;2023-04-03T02:10:21;6.80;83.30
25352;DHT22;13304;48.464;8.712;2023-04-03T02:12:47;6.80;83.00
25352;DHT22;13304;48.464;8.712;2023-04-03T02:15:13;6.80;83.00
25352;DHT22;13304;48.464;8.712;2023-04-03T02:17:39;6.80;82.60
25352;DHT22;13304;48.464;8.712;2023-04-03T02:20:05;6.90;83.20
25352;DHT22;13304;48.464;8.712;2023-04-03T02:22:32;6.80;82.80
25352;DHT22;13304;48.464;8.712;2023-04-03T02:24:58;6.90;82.50
25352;DHT22;13304;48.464;8.712;2023-04-03T02:27:23;6.90;82.90
25352;DHT22;13304;48.464;8.712;2023-04-03T02:29:49;6.90;83.30
25352;DHT22;13304;48.464;8.712;2023-04-03T02:32:15;6.90;82.10
25352;DHT22;13304;48.464;8.712;2023-04-03T02:34:41;6.90;82.50
25352;DHT22;13304;48.464;8.712;2023-04-03T02:37:06;6.90;81.70
25352;DHT22;13304;48.464;8.712;2023-04-03T02:39:32;6.90;82.40
25352;DHT22;13304;48.464;8.712;2023-04-03T02:41:58;6.90;82.70
25352;DHT22;13304;48.464;8.712;2023-04-03T02:44:24;7.00;82.80
25352;DHT22;13304;48.464;8.712;2023-04-03T02:46:50;6.90;82.00
25352;DHT22;13304;48.464;8.712;2023-04-03T02:49:15;6.90;82.50
25352;DHT22;13304;48.464;8.712;2023-04-03T02:51:41;6.90;82.40
25352;DHT22;13304;48.464;8.712;2023-04-03T02:54:07;6.90;81.80
25352;DHT22;13304;48.464;8.712;2023-04-03T02:56:33;6.90;82.50
25352;DHT22;13304;48.464;8.712;2023-04-03T02:58:59;6.90;81.90
25352;DHT22;13304;48.464;8.712;2023-04-03T03:01:25;6.80;80.90
25352;DHT22;13304;48.464;8.712;2023-04-03T03:03:54;6.80;81.40
25352;DHT22;13304;48.464;8.712;2023-04-03T03:06:20;6.80;81.40
25352;DHT22;13304;48.464;8.712;2023-04-03T03:08:45;6.80;81.60
25352;DHT22;13304;48.464;8.712;2023-04-03T03:11:11;6.80;82.00
25352;DHT22;13304;48.464;8.712;2023-04-03T03:13:37;6.80;81.90
25352;DHT22;13304;48.464;8.712;2023-04-03T03:16:04;6.80;81.50
25352;DHT22;13304;48.464;8.712;2023-04-03T03:18:30;6.80;82.00
25352;DHT22;13304;48.464;8.712;2023-04-03T03:20:57;6.80;81.30
25352;DHT22;13304;48.464;8.712;2023-04-03T03:23:25;6.70;79.80
25352;DHT22;13304;48.464;8.712;2023-04-03T03:26:17;6.60;80.30
25352;DHT22;13304;48.464;8.712;2023-04-03T03:28:43;6.60;80.00
25352;DHT22;13304;48.464;8.712;2023-04-03T03:31:10;6.60;80.80
25352;DHT22;13304;48.464;8.712;2023-04-03T03:33:36;6.60;80.40
25352;DHT22;13304;48.464;8.712;2023-04-03T03:36:02;6.60;80.00
25352;DHT22;13304;48.464;8.712;2023-04-03T03:38:28;6.60;80.40
25352;DHT22;13304;48.464;8.712;2023-04-03T03:40:54;6.50;80.00
25352;DHT22;13304;48.464;8.712;2023-04-03T03:43:20;6.50;79.80
25352;DHT22;13304;48.464;8.712;2023-04-03T03:45:50;6.50;80.70
25352;DHT22;13304;48.464;8.712;2023-04-03T03:48:16;6.50;80.20
25352;DHT22;13304;48.464;8.712;2023-04-03T03:50:42;6.50;80.50
25352;DHT22;13304;48.464;8.712;2023-04-03T03:53:08;6.50;80.40
25352;DHT22;13304;48.464;8.712;2023-04-03T03:55:34;6.40;79.60
25352;DHT22;13304;48.464;8.712;2023-04-03T03:57:59;6.40;80.90
25352;DHT22;13304;48.464;8.712;2023-04-03T04:00:27;6.40;80.10
25352;DHT22;13304;48.464;8.712;2023-04-03T04:02:52;6.40;81.00
25352;DHT22;13304;48.464;8.712;2023-04-03T04:05:18;6.40;80.50
25352;DHT22;13304;48.464;8.712;2023-04-03T04:07:44;6.40;80.80
25352;DHT22;13304;48.464;8.712;2023-04-03T04:10:10;6.40;80.40
25352;DHT22;13304;48.464;8.712;2023-04-03T04:12:35;6.30;80.30
25352;DHT22;13304;48.464;8.712;2023-04-03T04:15:05;6.30;80.60
25352;DHT22;13304;48.464;8.712;2023-04-03T04:17:30;6.30;80.50
25352;DHT22;13304;48.464;8.712;2023-04-03T04:19:56;6.30;79.30
25352;DHT22;13304;48.464;8.712;2023-04-03T04:22:22;6.30;79.90
25352;DHT22;13304;48.464;8.712;2023-04-03T04:24:47;6.30;80.70
25352;DHT22;13304;48.464;8.712;2023-04-03T04:27:13;6.30;80.00
25352;DHT22;13304;48.464;8.712;2023-04-03T04:29:41;6.30;80.40
25352;DHT22;13304;48.464;8.712;2023-04-03T04:32:06;6.20;79.90
25352;DHT22;13304;48.464;8.712;2023-04-03T04:34:32;6.20;80.10
25352;DHT22;13304;48.464;8.712;2023-04-03T04:36:59;6.20;80.40
25352;DHT22;13304;48.464;8.712;2023-04-03T04:39:25;6.20;80.10
25352;DHT22;13304;48.464;8.712;2023-04-03T04:41:51;6.20;80.60
25352;DHT22;13304;48.464;8.712;2023-04-03T04:44:16;6.20;80.50
25352;DHT22;13304;48.464;8.712;2023-04-03T04:46:42;6.20;79.70
25352;DHT22;13304;48.464;8.712;2023-04-03T04:49:08;6.20;80.30
25352;DHT22;13304;48.464;8.712;2023-04-03T04:51:34;6.20;80.60
25352;DHT22;13304;48.464;8.712;2023-04-03T04:54:00;6.20;80.40
25352;DHT22;13304;48.464;8.712;2023-04-03T04:56:26;6.20;79.90
25352;DHT22;13304;48.464;8.712;2023-04-03T04:58:52;6.20;80.80
25352;DHT22;13304;48.464;8.712;2023-04-03T05:01:17;6.20;80.70
25352;DHT22;13304;48.464;8.712;2023-04-03T05:03:44;6.20;80.90
25352;DHT22;13304;48.464;8.712;2023-04-03T05:06:10;6.20;80.80
25352;DHT22;13304;48.464;8.712;2023-04-03T05:08:35;6.20;80.10
25352;DHT22;13304;48.464;8.712;2023-04-03T05:11:01;6.10;79.90
25352;DHT22;13304;48.464;8.712;2023-04-03T05:13:27;6.10;80.40
25352;DHT22;13304;48.464;8.712;2023-04-03T05:15:53;6.10;80.30
25352;DHT22;13304;48.464;8.712;2023-04-03T05:18:18;6.10;80.00
25352;DHT22;13304;48.464;8.712;2023-04-03T05:20:44;6.10;80.80
25352;DHT22;13304;48.464;8.712;2023-04-03T05:23:10;6.10;80.80
25352;DHT22;13304;48.464;8.712;2023-04-03T05:25:40;6.10;80.80
25352;DHT22;13304;48.464;8.712;2023-04-03T05:28:06;6.10;81.00
25352;DHT22;13304;48.464;8.712;2023-04-03T05:30:32;6.20;81.30
25352;DHT22;13304;48.464;8.712;2023-04-03T05:32:58;6.20;81.10
25352;DHT22;13304;48.464;8.712;2023-04-03T05:35:24;6.10;80.80
25352;DHT22;13304;48.464;8.712;2023-04-03T05:37:50;6.10;80.90
25352;DHT22;13304;48.464;8.712;2023-04-03T05:40:16;6.10;80.60
25352;DHT22;13304;48.464;8.712;2023-04-03T05:42:42;6.20;81.30
25352;DHT22;13304;48.464;8.712;2023-04-03T05:45:08;6.20;80.90
25352;DHT22;13304;48.464;8.712;2023-04-03T05:47:34;6.20;81.40
25352;DHT22;13304;48.464;8.712;2023-04-03T05:49:59;6.20;81.40
25352;DHT22;13304;48.464;8.712;2023-04-03T05:52:35;6.20;80.80
25352;DHT22;13304;48.464;8.712;2023-04-03T05:55:02;6.20;80.20
25352;DHT22;13304;48.464;8.712;2023-04-03T05:57:28;6.20;80.90
25352;DHT22;13304;48.464;8.712;2023-04-03T05:59:53;6.30;80.90
25352;DHT22;13304;48.464;8.712;2023-04-03T06:02:21;6.20;79.80
25352;DHT22;13304;48.464;8.712;2023-04-03T06:04:47;6.20;80.10
25352;DHT22;13304;48.464;8.712;2023-04-03T06:07:16;6.20;79.90
25352;DHT22;13304;48.464;8.712;2023-04-03T06:09:42;6.30;80.60
25352;DHT22;13304;48.464;8.712;2023-04-03T06:12:09;6.30;79.80
25352;DHT22;13304;48.464;8.712;2023-04-03T06:14:35;6.30;79.10
25352;DHT22;13304;48.464;8.712;2023-04-03T06:17:01;6.30;80.00
25352;DHT22;13304;48.464;8.712;2023-04-03T06:19:27;6.30;80.40
25352;DHT22;13304;48.464;8.712;2023-04-03T06:21:53;6.30;79.50
25352;DHT22;13304;48.464;8.712;2023-04-03T06:24:20;6.30;78.70
25352;DHT22;13304;48.464;8.712;2023-04-03T06:26:47;6.30;77.30
25352;DHT22;13304;48.464;8.712;2023-04-03T06:29:13;6.30;78.20
25352;DHT22;13304;48.464;8.712;2023-04-03T06:31:38;6.30;78.70
25352;DHT22;13304;48.464;8.712;2023-04-03T06:34:05;6.30;78.60
25352;DHT22;13304;48.464;8.712;2023-04-03T06:36:31;6.30;77.50
25352;DHT22;13304;48.464;8.712;2023-04-03T06:38:57;6.30;77.60
25352;DHT22;13304;48.464;8.712;2023-04-03T06:41:23;6.30;77.10
25352;DHT22;13304;48.464;8.712;2023-04-03T06:43:49;6.40;77.10
25352;DHT22;13304;48.464;8.712;2023-04-03T06:46:20;6.30;75.00
25352;DHT22;13304;48.464;8.712;2023-04-03T06:48:47;6.20;72.70
25352;DHT22;13304;48.464;8.712;2023-04-03T06:51:24;6.30;74.20
25352;DHT22;13304;48.464;8.712;2023-04-03T06:53:52;6.10;71.50
25352;DHT22;13304;48.464;8.712;2023-04-03T06:56:19;6.20;73.20
25352;DHT22;13304;48.464;8.712;2023-04-03T06:58:45;6.20;72.70
25352;DHT22;13304;48.464;8.712;2023-04-03T07:01:13;6.20;72.20
25352;DHT22;13304;48.464;8.712;2023-04-03T07:03:39;6.20;71.90
25352;DHT22;13304;48.464;8.712;2023-04-03T07:06:07;6.20;72.40
25352;DHT22;13304;48.464;8.712;2023-04-03T07:08:34;6.20;72.60
25352;DHT22;13304;48.464;8.712;2023-04-03T07:11:00;6.20;72.80
25352;DHT22;13304;48.464;8.712;2023-04-03T07:13:26;6.20;73.70
25352;DHT22;13304;48.464;8.712;2023-04-03T07:15:52;6.30;73.70
25352;DHT22;13304;48.464;8.712;2023-04-03T07:18:19;6.20;71.10
25352;DHT22;13304;48.464;8.712;2023-04-03T07:20:45;6.20;70.90
25352;DHT22;13304;48.464;8.712;2023-04-03T07:23:11;6.30;73.00
25352;DHT22;13304;48.464;8.712;2023-04-03T07:25:43;6.30;72.60
25352;DHT22;13304;48.464;8.712;2023-04-03T07:28:08;6.30;71.50
25352;DHT22;13304;48.464;8.712;2023-04-03T07:30:34;6.40;72.40
25352;DHT22;13304;48.464;8.712;2023-04-03T07:33:01;6.30;71.10
25352;DHT22;13304;48.464;8.712;2023-04-03T07:35:27;6.30;71.00
25352;DHT22;13304;48.464;8.712;2023-04-03T07:37:52;6.40;71.60
25352;DHT22;13304;48.464;8.712;2023-04-03T07:40:18;6.20;70.30
25352;DHT22;13304;48.464;8.712;2023-04-03T07:42:44;6.30;72.10
25352;DHT22;13304;48.464;8.712;2023-04-03T07:45:10;6.30;71.70
25352;DHT22;13304;48.464;8.712;2023-04-03T07:47:37;6.40;71.70
25352;DHT22;13304;48.464;8.712;2023-04-03T07:50:02;6.40;72.10
25352;DHT22;13304;48.464;8.712;2023-04-03T07:52:28;6.40;71.60
25352;DHT22;13304;48.464;8.712;2023-04-03T07:54:54;6.50;71.90
25352;DHT22;13304;48.464;8.712;2023-04-03T07:57:19;6.50;72.10
25352;DHT22;13304;48.464;8.712;2023-04-03T07:59:45;6.50;71.90
25352;DHT22;13304;48.464;8.712;2023-04-03T08:02:12;6.60;71.70
25352;DHT22;13304;48.464;8.712;2023-04-03T08:04:38;6.60;71.70
25352;DHT22;13304;48.464;8.712;2023-04-03T08:07:04;6.70;73.10
25352;DHT22;13304;48.464;8.712;2023-04-03T08:09:30;6.80;72.80
25352;DHT22;13304;48.464;8.712;2023-04-03T08:11:57;6.80;71.00
25352;DHT22;13304;48.464;8.712;2023-04-03T08:14:23;6.80;69.50
25352;DHT22;13304;48.464;8.712;2023-04-03T08:16:49;6.80;68.90
25352;DHT22;13304;48.464;8.712;2023-04-03T08:19:16;6.90;69.70
25352;DHT22;13304;48.464;8.712;2023-04-03T08:21:43;7.00;70.00
25352;DHT22;13304;48.464;8.712;2023-04-03T08:24:18;7.00;68.10
25352;DHT22;13304;48.464;8.712;2023-04-03T08:26:51;7.10;68.40
25352;DHT22;13304;48.464;8.712;2023-04-03T08:29:23;7.10;67.20
25352;DHT22;13304;48.464;8.712;2023-04-03T08:31:51;7.20;67.30
25352;DHT22;13304;48.464;8.712;2023-04-03T08:34:18;7.30;68.60
25352;DHT22;13304;48.464;8.712;2023-04-03T08:36:46;7.30;67.50
25352;DHT22;13304;48.464;8.712;2023-04-03T08:39:16;7.30;67.30
25352;DHT22;13304;48.464;8.712;2023-04-03T08:41:44;7.30;68.30
25352;DHT22;13304;48.464;8.712;2023-04-03T08:44:44;7.30;66.70
25352;DHT22;13304;48.464;8.712;2023-04-03T08:47:40;7.30;66.40
25352;DHT22;13304;48.464;8.712;2023-04-03T08:50:17;7.40;66.70
25352;DHT22;13304;48.464;8.712;2023-04-03T08:52:56;7.40;67.20
25352;DHT22;13304;48.464;8.712;2023-04-03T08:55:31;7.40;68.00
25352;DHT22;13304;48.464;8.712;2023-04-03T09:01:29;7.50;68.20
25352;DHT22;13304;48.464;8.712;2023-04-03T09:04:09;7.40;66.40
25352;DHT22;13304;48.464;8.712;2023-04-03T09:06:43;7.50;67.00
25352;DHT22;13304;48.464;8.712;2023-04-03T09:09:29;7.50;66.80
25352;DHT22;13304;48.464;8.712;2023-04-03T09:20:39;7.50;66.80
25352;DHT22;13304;48.464;8.712;2023-04-03T09:23:45;7.60;67.60
25352;DHT22;13304;48.464;8.712;2023-04-03T09:26:28;7.50;65.60
25352;DHT22;13304;48.464;8.712;2023-04-03T09:29:01;7.60;67.30
25352;DHT22;13304;48.464;8.712;2023-04-03T09:36:57;7.70;67.20
25352;DHT22;13304;48.464;8.712;2023-04-03T09:39:27;7.80;67.90
25352;DHT22;13304;48.464;8.712;2023-04-03T09:44:37;7.80;66.80
25352;DHT22;13304;48.464;8.712;2023-04-03T09:50:22;8.00;66.40
25352;DHT22;13304;48.464;8.712;2023-04-03T09:52:52;8.00;64.70
25352;DHT22;13304;48.464;8.712;2023-04-03T09:55:33;8.00;65.90
25352;DHT22;13304;48.464;8.712;2023-04-03T09:58:37;8.10;65.80
25352;DHT22;13304;48.464;8.712;2023-04-03T10:01:06;8.20;67.40
25352;DHT22;13304;48.464;8.712;2023-04-03T10:03:36;8.30;66.20
25352;DHT22;13304;48.464;8.712;2023-04-03T10:06:22;8.30;65.50
25352;DHT22;13304;48.464;8.712;2023-04-03T10:09:29;8.30;64.00
25352;DHT22;13304;48.464;8.712;2023-04-03T10:12:09;8.30;64.70
25352;DHT22;13304;48.464;8.712;2023-04-03T10:15:00;8.40;65.10
25352;DHT22;13304;48.464;8.712;2023-04-03T10:25:23;8.40;63.70
25352;DHT22;13304;48.464;8.712;2023-04-03T10:28:00;8.40;63.50
25352;DHT22;13304;48.464;8.712;2023-04-03T10:44:52;8.50;63.90
25352;DHT22;13304;48.464;8.712;2023-04-03T10:48:02;8.50;62.50
25352;DHT22;13304;48.464;8.712;2023-04-03T11:01:49;8.70;63.80
25352;DHT22;13304;48.464;8.712;2023-04-03T11:04:19;8.70;63.20
25352;DHT22;13304;48.464;8.712;2023-04-03T11:07:24;8.80;64.60
25352;DHT22;13304;48.464;8.712;2023-04-03T11:10:19;8.80;63.50
25352;DHT22;13304;48.464;8.712;2023-04-03T11:15:40;8.80;62.50
25352;DHT22;13304;48.464;8.712;2023-04-03T11:18:19;8.90;63.30
25352;DHT22;13304;48.464;8.712;2023-04-03T11:21:03;8.80;62.50
25352;DHT22;13304;48.464;8.712;2023-04-03T11:23:56;8.70;62.60
25352;DHT22;13304;48.464;8.712;2023-04-03T11:26:32;8.80;62.00
25352;DHT22;13304;48.464;8.712;2023-04-03T11:29:12;8.80;62.40
25352;DHT22;13304;48.464;8.712;2023-04-03T11:34:52;8.70;60.20
25352;DHT22;13304;48.464;8.712;2023-04-03T11:37:35;8.70;60.20
25352;DHT22;13304;48.464;8.712;2023-04-03T11:42:49;8.60;59.60
25352;DHT22;13304;48.464;8.712;2023-04-03T11:45:29;8.60;59.80
25352;DHT22;13304;48.464;8.712;2023-04-03T11:50:52;8.70;60.10
25352;DHT22;13304;48.464;8.712;2023-04-03T11:53:29;8.60;58.80
25352;DHT22;13304;48.464;8.712;2023-04-03T11:55:58;8.60;59.20
25352;DHT22;13304;48.464;8.712;2023-04-03T11:58:33;8.60;60.00
25352;DHT22;13304;48.464;8.712;2023-04-03T12:08:53;8.60;60.60
25352;DHT22;13304;48.464;8.712;2023-04-03T12:11:34;8.70;62.80
25352;DHT22;13304;48.464;8.712;2023-04-03T12:14:15;8.80;60.90
25352;DHT22;13304;48.464;8.712;2023-04-03T12:16:49;8.80;60.70
25352;DHT22;13304;48.464;8.712;2023-04-03T12:19:36;8.80;60.60
25352;DHT22;13304;48.464;8.712;2023-04-03T12:22:08;8.80;61.30
25352;DHT22;13304;48.464;8.712;2023-04-03T12:24:39;8.90;62.10
25352;DHT22;13304;48.464;8.712;2023-04-03T12:27:23;8.90;61.20
25352;DHT22;13304;48.464;8.712;2023-04-03T12:44:40;8.90;61.10
25352;DHT22;13304;48.464;8.712;2023-04-03T12:47:36;8.90;61.40
25352;DHT22;13304;48.464;8.712;2023-04-03T12:50:32;8.80;59.90
25352;DHT22;13304;48.464;8.712;2023-04-03T12:53:21;8.90;60.40
25352;DHT22;13304;48.464;8.712;2023-04-03T12:55:54;8.90;61.50
25352;DHT22;13304;48.464;8.712;2023-04-03T12:58:26;9.10;61.30
25352;DHT22;13304;48.464;8.712;2023-04-03T13:01:23;9.20;62.10
25352;DHT22;13304;48.464;8.712;2023-04-03T13:03:53;9.10;61.40
25352;DHT22;13304;48.464;8.712;2023-04-03T13:06:30;9.10;60.20
25352;DHT22;13304;48.464;8.712;2023-04-03T13:08:59;9.10;59.70
25352;DHT22;13304;48.464;8.712;2023-04-03T13:11:38;9.20;59.70
25352;DHT22;13304;48.464;8.712;2023-04-03T13:14:20;9.20;59.80
25352;DHT22;13304;48.464;8.712;2023-04-03T13:17:13;9.00;58.80
25352;DHT22;13304;48.464;8.712;2023-04-03T13:19:41;9.10;59.00
25352;DHT22;13304;48.464;8.712;2023-04-03T13:22:32;9.10;59.80
25352;DHT22;13304;48.464;8.712;2023-04-03T13:25:10;9.10;59.40
25352;DHT22;13304;48.464;8.712;2023-04-03T13:27:41;9.10;59.60
25352;DHT22;13304;48.464;8.712;2023-04-03T13:30:53;9.00;59.10
25352;DHT22;13304;48.464;8.712;2023-04-03T13:33:28;9.00;59.60
25352;DHT22;13304;48.464;8.712;2023-04-03T13:36:06;9.00;58.50
25352;DHT22;13304;48.464;8.712;2023-04-03T13:38:34;9.00;58.70
25352;DHT22;13304;48.464;8.712;2023-04-03T13:41:05;8.90;59.10
25352;DHT22;13304;48.464;8.712;2023-04-03T13:43:49;8.90;59.30
25352;DHT22;13304;48.464;8.712;2023-04-03T13:48:48;8.90;58.80
25352;DHT22;13304;48.464;8.712;2023-04-03T13:54:21;8.80;59.00
25352;DHT22;13304;48.464;8.712;2023-04-03T13:57:00;8.70;57.60
25352;DHT22;13304;48.464;8.712;2023-04-03T13:59:33;8.90;59.50
25352;DHT22;13304;48.464;8.712;2023-04-03T14:04:53;8.80;58.50
25352;DHT22;13304;48.464;8.712;2023-04-03T14:07:21;8.80;58.20
25352;DHT22;13304;48.464;8.712;2023-04-03T14:09:48;8.90;59.10
25352;DHT22;13304;48.464;8.712;2023-04-03T14:12:33;8.90;59.40
25352;DHT22;13304;48.464;8.712;2023-04-03T14:17:43;8.90;59.40
25352;DHT22;13304;48.464;8.712;2023-04-03T14:20:17;9.00;60.30
25352;DHT22;13304;48.464;8.712;2023-04-03T14:22:48;9.00;59.40
25352;DHT22;13304;48.464;8.712;2023-04-03T14:25:15;9.00;58.90
25352;DHT22;13304;48.464;8.712;2023-04-03T14:27:44;9.10;59.60
25352;DHT22;13304;48.464;8.712;2023-04-03T14:30:23;9.00;58.40
25352;DHT22;13304;48.464;8.712;2023-04-03T14:32:50;9.00;58.90
25352;DHT22;13304;48.464;8.712;2023-04-03T14:35:20;9.10;58.10
25352;DHT22;13304;48.464;8.712;2023-04-03T14:37:49;9.00;57.60
25352;DHT22;13304;48.464;8.712;2023-04-03T14:40:23;9.00;58.10
25352;DHT22;13304;48.464;8.712;2023-04-03T14:42:50;9.00;58.10
25352;DHT22;13304;48.464;8.712;2023-04-03T14:45:20;9.00;58.40
25352;DHT22;13304;48.464;8.712;2023-04-03T14:47:56;9.00;58.20
25352;DHT22;13304;48.464;8.712;2023-04-03T14:50:26;9.00;58.60
25352;DHT22;13304;48.464;8.712;2023-04-03T14:52:55;8.90;57.60
25352;DHT22;13304;48.464;8.712;2023-04-03T14:55:22;9.00;58.00
25352;DHT22;13304;48.464;8.712;2023-04-03T14:57:51;8.90;56.80
25352;DHT22;13304;48.464;8.712;2023-04-03T15:00:19;9.00;57.50
25352;DHT22;13304;48.464;8.712;2023-04-03T15:02:51;9.00;57.30
25352;DHT22;13304;48.464;8.712;2023-04-03T15:05:18;9.00;57.30
25352;DHT22;13304;48.464;8.712;2023-04-03T15:07:55;9.00;57.90
25352;DHT22;13304;48.464;8.712;2023-04-03T15:10:41;9.00;57.30
25352;DHT22;13304;48.464;8.712;2023-04-03T15:13:09;9.00;57.50
25352;DHT22;13304;48.464;8.712;2023-04-03T15:15:39;8.90;57.40
25352;DHT22;13304;48.464;8.712;2023-04-03T15:18:09;8.90;57.50
25352;DHT22;13304;48.464;8.712;2023-04-03T15:20:37;8.90;58.00
25352;DHT22;13304;48.464;8.712;2023-04-03T15:23:06;8.90;58.40
25352;DHT22;13304;48.464;8.712;2023-04-03T15:25:36;8.80;58.20
25352;DHT22;13304;48.464;8.712;2023-04-03T15:28:02;8.80;58.10
25352;DHT22;13304;48.464;8.712;2023-04-03T15:30:29;8.80;59.00
25352;DHT22;13304;48.464;8.712;2023-04-03T15:33:16;8.90;59.40
25352;DHT22;13304;48.464;8.712;2023-04-03T15:36:05;8.70;57.40
25352;DHT22;13304;48.464;8.712;2023-04-03T15:38:53;8.70;57.80
25352;DHT22;13304;48.464;8.712;2023-04-03T15:41:22;8.80;58.20
25352;DHT22;13304;48.464;8.712;2023-04-03T15:43:50;8.80;58.60
25352;DHT22;13304;48.464;8.712;2023-04-03T15:46:16;8.80;58.40
25352;DHT22;13304;48.464;8.712;2023-04-03T15:48:45;8.80;57.90
25352;DHT22;13304;48.464;8.712;2023-04-03T15:51:11;8.80;58.60
25352;DHT22;13304;48.464;8.712;2023-04-03T15:53:37;8.80;58.50
25352;DHT22;13304;48.464;8.712;2023-04-03T15:56:07;8.80;59.40
25352;DHT22;13304;48.464;8.712;2023-04-03T15:58:35;8.70;57.70
25352;DHT22;13304;48.464;8.712;2023-04-03T16:01:09;8.70;57.80
25352;DHT22;13304;48.464;8.712;2023-04-03T16:03:35;8.70;57.60
25352;DHT22;13304;48.464;8.712;2023-04-03T16:06:07;8.60;57.20
25352;DHT22;13304;48.464;8.712;2023-04-03T16:08:36;8.60;57.90
25352;DHT22;13304;48.464;8.712;2023-04-03T16:11:03;8.60;58.20
25352;DHT22;13304;48.464;8.712;2023-04-03T16:13:35;8.70;59.60
25352;DHT22;13304;48.464;8.712;2023-04-03T16:16:21;8.60;59.00
25352;DHT22;13304;48.464;8.712;2023-04-03T16:18:47;8.60;58.40
25352;DHT22;13304;48.464;8.712;2023-04-03T16:21:17;8.60;58.20
25352;DHT22;13304;48.464;8.712;2023-04-03T16:23:44;8.60;58.90
25352;DHT22;13304;48.464;8.712;2023-04-03T16:26:16;8.50;58.00
25352;DHT22;13304;48.464;8.712;2023-04-03T16:28:43;8.50;58.00
25352;DHT22;13304;48.464;8.712;2023-04-03T16:31:09;8.50;58.50
25352;DHT22;13304;48.464;8.712;2023-04-03T16:33:37;8.50;58.40
25352;DHT22;13304;48.464;8.712;2023-04-03T16:36:05;8.60;58.50
25352;DHT22;13304;48.464;8.712;2023-04-03T16:38:55;8.50;57.90
25352;DHT22;13304;48.464;8.712;2023-04-03T16:41:24;8.50;58.40
25352;DHT22;13304;48.464;8.712;2023-04-03T16:43:53;8.50;57.60
25352;DHT22;13304;48.464;8.712;2023-04-03T16:46:20;8.40;57.50
25352;DHT22;13304;48.464;8.712;2023-04-03T16:48:47;8.40;58.40
25352;DHT22;13304;48.464;8.712;2023-04-03T16:51:13;8.40;58.40
25352;DHT22;13304;48.464;8.712;2023-04-03T16:53:45;8.40;58.20
25352;DHT22;13304;48.464;8.712;2023-04-03T16:56:12;8.40;58.90
25352;DHT22;13304;48.464;8.712;2023-04-03T16:58:46;8.40;59.70
25352;DHT22;13304;48.464;8.712;2023-04-03T17:01:17;8.40;59.70
25352;DHT22;13304;48.464;8.712;2023-04-03T17:03:46;8.30;58.90
25352;DHT22;13304;48.464;8.712;2023-04-03T17:06:18;8.30;59.10
25352;DHT22;13304;48.464;8.712;2023-04-03T17:08:49;8.20;59.60
25352;DHT22;13304;48.464;8.712;2023-04-03T17:11:18;8.20;58.50
25352;DHT22;13304;48.464;8.712;2023-04-03T17:13:49;8.20;58.40
25352;DHT22;13304;48.464;8.712;2023-04-03T17:16:16;8.10;58.00
25352;DHT22;13304;48.464;8.712;2023-04-03T17:18:43;8.10;58.40
25352;DHT22;13304;48.464;8.712;2023-04-03T17:21:14;8.10;58.20
25352;DHT22;13304;48.464;8.712;2023-04-03T17:23:49;8.00;58.00
25352;DHT22;13304;48.464;8.712;2023-04-03T17:26:20;8.00;58.20
25352;DHT22;13304;48.464;8.712;2023-04-03T17:28:47;7.90;57.80
25352;DHT22;13304;48.464;8.712;2023-04-03T17:31:15;7.80;57.70
25352;DHT22;13304;48.464;8.712;2023-04-03T17:33:50;7.80;57.70
25352;DHT22;13304;48.464;8.712;2023-04-03T17:36:17;7.80;58.20
25352;DHT22;13304;48.464;8.712;2023-04-03T17:38:44;7.80;57.90
25352;DHT22;13304;48.464;8.712;2023-04-03T17:41:12;7.80;58.40
25352;DHT22;13304;48.464;8.712;2023-04-03T17:43:38;7.80;58.20
25352;DHT22;13304;48.464;8.712;2023-04-03T17:46:08;7.80;58.10
25352;DHT22;13304;48.464;8.712;2023-04-03T17:48:39;7.70;58.20
25352;DHT22;13304;48.464;8.712;2023-04-03T17:51:17;7.80;58.50
25352;DHT22;13304;48.464;8.712;2023-04-03T17:53:46;7.70;58.70
25352;DHT22;13304;48.464;8.712;2023-04-03T17:56:18;7.70;58.30
25352;DHT22;13304;48.464;8.712;2023-04-03T17:58:49;7.60;58.40
25352;DHT22;13304;48.464;8.712;2023-04-03T18:01:19;7.60;58.20